Time;durP1;ratioP1;P1;durP2;ratioP2;P2;SDS_P1;SDS_P2;PMS_P1;PMS_P2;Temp;Humidity;BMP_temperature;BMP_pressure;BME280_temperature;BME280_humidity;BME280_pressure;Samples;Min_cycle;Max_cycle;Signal;HPM_P1;HPM_P2
2022/11/25 00:01:13;;;;;;;7.38;6.88;;;;;;;;;;4993408;28;20026;-61
2022/11/25 00:03:39;;;;;;;;;;;;;;;;;;4992501;28;20141;-61
2022/11/25 00:06:25;;;;;;;7.30;6.75;;;;;;;;;;4992371;28;19917;-61
2022/11/25 00:08:56;;;;;;;7.82;7.22;;;;;;;;;;4993625;28;20215;-61
2022/11/25 00:11:22;;;;;;;6.60;6.13;;;;;;;;;;4993122;28;20680;-61
2022/11/25 00:13:48;;;;;;;6.82;6.35;;;;;;;;;;4994368;28;20052;-60
2022/11/25 00:16:19;;;;;;;8.13;7.53;;;;;;;;;;4991180;28;20356;-60
2022/11/25 00:18:46;;;;;;;7.78;7.28;;;;;;;;;;4992330;28;20066;-56
2022/11/25 00:21:14;;;;;;;7.38;6.88;;;;;;;;;;4991341;28;20368;-56
2022/11/25 00:23:39;;;;;;;7.68;6.93;;;;;;;;;;4992503;28;20399;-55
2022/11/25 00:26:15;;;;;;;8.38;7.78;;;;;;;;;;4991419;28;20038;-57
2022/11/25 00:28:43;;;;;;;7.80;7.30;;;;;;;;;;4992607;28;20056;-56
2022/11/25 00:31:09;;;;;;;7.32;6.72;;;;;;;;;;4992014;28;20029;-55
2022/11/25 00:33:36;;;;;;;8.57;7.95;;;;;;;;;;4990980;28;20058;-57
2022/11/25 00:36:06;;;;;;;8.40;7.75;;;;;;;;;;4991655;28;20073;-56
2022/11/25 00:38:31;;;;;;;16.88;15.00;;;;;;;;;;4993589;28;20041;-56
2022/11/25 00:46:24;;;;;;;9.40;8.70;;;;;;;;;;4989392;28;20041;-56
2022/11/25 00:48:49;;;;;;;8.65;7.95;;;;;;;;;;4990800;28;20030;-56
2022/11/25 00:51:15;;;;;;;9.77;9.07;;;;;;;;;;4991405;28;20076;-56
2022/11/25 00:53:40;;;;;;;9.25;8.55;;;;;;;;;;4990225;28;20516;-56
2022/11/25 00:56:15;;;;;;;8.95;8.35;;;;;;;;;;4992493;28;20407;-57
2022/11/25 00:58:41;;;;;;;10.27;9.45;;;;;;;;;;4994453;28;20042;-60
2022/11/25 01:01:07;;;;;;;8.98;8.38;;;;;;;;;;4987104;28;20149;-60
2022/11/25 01:03:33;;;;;;;9.90;9.10;;;;;;;;;;4991801;28;20096;-61
2022/11/25 01:06:03;;;;;;;8.65;8.05;;;;;;;;;;4994112;28;20038;-60
2022/11/25 01:08:29;;;;;;;7.93;7.32;;;;;;;;;;4990357;28;20140;-56
2022/11/25 01:10:59;;;;;;;7.22;6.72;;;;;;;;;;4993126;28;20038;-57
2022/11/25 01:13:24;;;;;;;8.82;8.10;;;;;;;;;;4994101;28;20034;-56
2022/11/25 01:15:49;;;;;;;11.48;10.57;;;;;;;;;;4991800;28;20026;-56
2022/11/25 01:18:15;;;;;;;9.70;8.80;;;;;;;;;;4993073;28;20026;-57
2022/11/25 01:20:40;;;;;;;9.63;8.80;;;;;;;;;;4990557;28;20069;-57
2022/11/25 01:23:05;;;;;;;8.05;7.45;;;;;;;;;;4992345;28;20046;-56
2022/11/25 01:25:31;;;;;;;8.95;8.35;;;;;;;;;;4993797;28;20555;-57
2022/11/25 01:27:56;;;;;;;7.97;7.47;;;;;;;;;;4992688;28;20065;-56
2022/11/25 01:30:21;;;;;;;8.07;7.53;;;;;;;;;;4990609;28;20069;-56
2022/11/25 01:32:47;;;;;;;9.60;8.88;;;;;;;;;;4992449;28;20037;-57
2022/11/25 01:35:12;;;;;;;8.77;8.18;;;;;;;;;;4991878;28;20820;-56
2022/11/25 01:37:37;;;;;;;9.18;8.38;;;;;;;;;;4992747;28;20091;-61
2022/11/25 01:40:03;;;;;;;8.68;8.07;;;;;;;;;;4993162;28;20029;-61
2022/11/25 01:42:30;;;;;;;7.22;6.72;;;;;;;;;;4989677;28;20251;-61
2022/11/25 01:45:31;;;;;;;7.82;7.28;;;;;;;;;;4989434;28;20139;-61
2022/11/25 01:48:01;;;;;;;7.05;6.55;;;;;;;;;;4990908;28;20476;-61
2022/11/25 01:50:28;;;;;;;6.65;6.18;;;;;;;;;;4991817;28;20084;-61
2022/11/25 01:52:55;;;;;;;6.85;6.35;;;;;;;;;;4988886;28;20432;-61
2022/11/25 01:55:28;;;;;;;6.90;6.40;;;;;;;;;;4989974;28;20088;-61
2022/11/25 01:58:09;;;;;;;7.78;7.18;;;;;;;;;;4989828;28;20144;-57
2022/11/25 02:00:36;;;;;;;8.82;8.13;;;;;;;;;;4991088;28;20119;-57
2022/11/25 02:03:02;;;;;;;7.38;6.88;;;;;;;;;;4992514;28;20027;-57
2022/11/25 02:05:51;;;;;;;7.05;6.55;;;;;;;;;;4991031;28;20038;-56
2022/11/25 02:08:18;;;;;;;8.40;7.80;;;;;;;;;;4983181;28;20056;-57
2022/11/25 02:10:44;;;;;;;8.27;7.68;;;;;;;;;;4991320;28;20057;-58
2022/11/25 02:13:10;;;;;;;14.32;12.82;;;;;;;;;;4991637;28;20030;-57
2022/11/25 02:15:35;;;;;;;9.23;8.52;;;;;;;;;;4990638;28;20042;-57
2022/11/25 02:18:01;;;;;;;7.95;7.35;;;;;;;;;;4992749;28;20030;-58
2022/11/25 02:20:27;;;;;;;9.40;8.48;;;;;;;;;;4996247;28;20037;-57
2022/11/25 02:23:06;;;;;;;6.57;6.07;;;;;;;;;;4994692;28;20034;-57
2022/11/25 02:25:36;;;;;;;7.65;7.07;;;;;;;;;;4996442;28;20034;-57
2022/11/25 02:28:08;;;;;;;7.47;6.93;;;;;;;;;;4995916;28;20038;-57
2022/11/25 02:30:34;;;;;;;;;;;;;;;;;;4998237;28;20036;-57
2022/11/25 02:33:00;;;;;;;8.25;7.65;;;;;;;;;;4996390;28;19957;-57
2022/11/25 02:35:32;;;;;;;7.95;7.35;;;;;;;;;;5000478;28;20030;-57
2022/11/25 02:38:14;;;;;;;7.22;6.72;;;;;;;;;;4998768;28;20280;-57
2022/11/25 02:40:50;;;;;;;7.05;6.55;;;;;;;;;;4996803;28;20121;-57
2022/11/25 02:43:16;;;;;;;7.55;7.05;;;;;;;;;;4995614;28;20026;-57
2022/11/25 02:46:04;;;;;;;7.97;7.25;;;;;;;;;;4997567;28;20030;-57
2022/11/25 02:48:32;;;;;;;7.10;6.60;;;;;;;;;;4998342;28;20096;-57
2022/11/25 02:50:58;;;;;;;8.63;8.02;;;;;;;;;;4999236;28;20124;-57
2022/11/25 02:53:23;;;;;;;9.13;8.43;;;;;;;;;;4996865;28;20114;-57
2022/11/25 02:55:49;;;;;;;8.73;8.13;;;;;;;;;;4998229;28;20041;-57
2022/11/25 02:58:15;;;;;;;8.95;8.35;;;;;;;;;;4998365;28;20453;-57
2022/11/25 03:00:41;;;;;;;11.05;8.40;;;;;;;;;;4993705;28;20133;-57
2022/11/25 03:03:07;;;;;;;8.43;7.82;;;;;;;;;;4998528;28;20027;-57
2022/11/25 03:05:32;;;;;;;8.27;7.68;;;;;;;;;;4998391;28;20306;-55
2022/11/25 03:07:58;;;;;;;8.95;8.35;;;;;;;;;;4999886;28;20033;-57
2022/11/25 03:10:25;;;;;;;7.72;7.22;;;;;;;;;;5000290;28;20058;-57
2022/11/25 03:12:50;;;;;;;9.07;8.43;;;;;;;;;;4999324;28;20469;-57
2022/11/25 03:15:16;;;;;;;8.10;7.43;;;;;;;;;;4998883;28;20637;-56
2022/11/25 03:17:41;;;;;;;7.65;7.15;;;;;;;;;;4996514;28;20030;-58
2022/11/25 03:20:08;;;;;;;8.40;7.82;;;;;;;;;;4996526;28;20026;-57
2022/11/25 03:22:34;;;;;;;7.45;6.93;;;;;;;;;;4999446;28;20034;-57
2022/11/25 03:25:00;;;;;;;8.23;7.63;;;;;;;;;;5000795;28;20031;-57
2022/11/25 03:27:25;;;;;;;8.25;7.65;;;;;;;;;;4995542;28;20578;-57
2022/11/25 03:29:51;;;;;;;8.02;7.43;;;;;;;;;;4996451;28;20040;-57
2022/11/25 03:32:16;;;;;;;8.38;7.68;;;;;;;;;;4994530;28;20030;-57
2022/11/25 03:34:41;;;;;;;8.02;7.43;;;;;;;;;;4996125;28;20101;-57
2022/11/25 03:37:07;;;;;;;7.43;6.93;;;;;;;;;;4994722;28;20449;-57
2022/11/25 03:39:32;;;;;;;7.38;6.88;;;;;;;;;;4993106;28;20121;-61
2022/11/25 03:41:58;;;;;;;9.75;8.55;;;;;;;;;;4993894;28;20029;-61
2022/11/25 03:44:23;;;;;;;8.35;7.75;;;;;;;;;;4993390;28;20102;-61
2022/11/25 03:46:48;;;;;;;8.40;7.80;;;;;;;;;;4995602;28;20036;-61
2022/11/25 03:49:14;;;;;;;7.35;6.85;;;;;;;;;;4995312;28;20042;-57
2022/11/25 03:51:39;;;;;;;7.82;7.32;;;;;;;;;;4993123;28;20057;-57
2022/11/25 03:54:04;;;;;;;8.52;7.93;;;;;;;;;;4995260;28;20465;-57
2022/11/25 03:56:30;;;;;;;8.45;7.75;;;;;;;;;;4991281;28;20581;-57
2022/11/25 03:58:55;;;;;;;7.90;7.40;;;;;;;;;;4993505;28;20030;-57
2022/11/25 04:01:20;;;;;;;8.88;8.27;;;;;;;;;;4994652;28;20034;-57
2022/11/25 04:03:46;;;;;;;8.65;8.05;;;;;;;;;;4992938;28;20900;-57
2022/11/25 04:06:11;;;;;;;7.55;7.05;;;;;;;;;;4992317;28;20096;-57
2022/11/25 04:08:37;;;;;;;8.60;8.00;;;;;;;;;;4993984;28;20034;-61
2022/11/25 04:11:02;;;;;;;9.75;8.95;;;;;;;;;;4994143;28;20029;-61
2022/11/25 04:13:28;;;;;;;8.35;7.75;;;;;;;;;;4992288;28;20034;-61
2022/11/25 04:15:53;;;;;;;8.35;7.75;;;;;;;;;;4993314;28;20429;-61
2022/11/25 04:18:19;;;;;;;6.95;6.45;;;;;;;;;;4997623;28;20025;-61
2022/11/25 04:20:45;;;;;;;8.77;8.18;;;;;;;;;;4994621;28;20480;-57
2022/11/25 04:23:11;;;;;;;7.78;7.20;;;;;;;;;;4993022;28;20026;-57
2022/11/25 04:25:38;;;;;;;8.40;7.80;;;;;;;;;;4992297;28;20043;-57
2022/11/25 04:28:04;;;;;;;7.60;7.10;;;;;;;;;;4994361;28;20045;-57
2022/11/25 04:30:31;;;;;;;8.18;7.68;;;;;;;;;;4992608;28;20030;-60
2022/11/25 04:32:56;;;;;;;9.23;8.52;;;;;;;;;;4992395;28;20652;-60
2022/11/25 04:35:22;;;;;;;8.40;7.80;;;;;;;;;;4994227;28;20034;-59
2022/11/25 04:37:49;;;;;;;8.00;7.50;;;;;;;;;;4996286;28;20432;-59
2022/11/25 04:40:14;;;;;;;8.60;7.95;;;;;;;;;;4992751;28;20948;-59
2022/11/25 04:42:39;;;;;;;8.15;7.65;;;;;;;;;;4995374;28;20038;-59
2022/11/25 04:45:08;;;;;;;7.32;6.82;;;;;;;;;;4992253;28;20700;-59
2022/11/25 04:47:34;;;;;;;7.55;6.97;;;;;;;;;;4993397;28;20464;-59
2022/11/25 04:50:00;;;;;;;8.77;8.07;;;;;;;;;;4989527;28;20100;-58
2022/11/25 04:52:25;;;;;;;8.18;7.50;;;;;;;;;;4995745;28;20061;-59
2022/11/25 04:54:50;;;;;;;8.90;8.20;;;;;;;;;;4992479;28;20553;-57
2022/11/25 04:57:16;;;;;;;9.60;8.80;;;;;;;;;;4996640;28;20030;-57
2022/11/25 04:59:42;;;;;;;7.95;7.35;;;;;;;;;;4994358;28;20026;-59
2022/11/25 05:02:15;;;;;;;7.20;6.70;;;;;;;;;;4993706;28;20415;-59
2022/11/25 05:04:42;;;;;;;8.10;7.57;;;;;;;;;;4992754;28;20040;-59
2022/11/25 05:07:08;;;;;;;8.38;7.78;;;;;;;;;;4991813;28;20711;-59
2022/11/25 05:09:33;;;;;;;8.95;8.25;;;;;;;;;;4991878;28;20029;-57
2022/11/25 05:11:59;;;;;;;7.95;7.45;;;;;;;;;;4991745;28;20167;-57
2022/11/25 05:14:24;;;;;;;8.70;8.10;;;;;;;;;;4991392;28;20715;-57
2022/11/25 05:16:51;;;;;;;7.75;7.25;;;;;;;;;;4984373;28;20026;-57
2022/11/25 05:19:16;;;;;;;8.02;7.53;;;;;;;;;;4992857;28;20080;-57
2022/11/25 05:21:42;;;;;;;7.90;7.40;;;;;;;;;;4990051;28;20042;-57
2022/11/25 05:24:07;;;;;;;8.48;7.88;;;;;;;;;;4993321;28;20345;-57
2022/11/25 05:26:33;;;;;;;8.70;8.10;;;;;;;;;;4992893;28;20065;-58
2022/11/25 05:28:58;;;;;;;9.25;8.55;;;;;;;;;;4993747;28;20030;-57
2022/11/25 05:31:24;;;;;;;7.97;7.47;;;;;;;;;;4989127;28;20060;-58
2022/11/25 05:33:49;;;;;;;7.88;7.38;;;;;;;;;;4991996;28;20089;-59
2022/11/25 05:36:14;;;;;;;8.77;8.18;;;;;;;;;;4994957;28;20053;-61
2022/11/25 05:38:40;;;;;;;8.48;7.88;;;;;;;;;;4993256;28;20049;-60
2022/11/25 05:41:06;;;;;;;8.10;7.53;;;;;;;;;;4992177;28;20034;-58
2022/11/25 05:43:33;;;;;;;8.30;7.60;;;;;;;;;;4994479;28;20456;-57
2022/11/25 05:45:58;;;;;;;8.95;8.35;;;;;;;;;;4994949;28;20039;-58
2022/11/25 05:48:24;;;;;;;8.25;7.65;;;;;;;;;;4991213;28;20030;-57
2022/11/25 05:50:49;;;;;;;9.63;8.73;;;;;;;;;;4990748;28;20026;-57
2022/11/25 05:53:16;;;;;;;9.98;8.85;;;;;;;;;;4990313;28;20038;-58
2022/11/25 05:55:42;;;;;;;9.57;8.93;;;;;;;;;;4992423;28;20046;-58
2022/11/25 05:58:07;;;;;;;7.88;7.38;;;;;;;;;;4991033;28;20084;-58
2022/11/25 06:00:33;;;;;;;8.45;7.75;;;;;;;;;;4991188;28;20042;-58
2022/11/25 06:02:59;;;;;;;9.32;8.73;;;;;;;;;;4993276;28;20190;-58
2022/11/25 06:05:24;;;;;;;8.57;7.97;;;;;;;;;;4991298;28;20033;-57
2022/11/25 06:07:50;;;;;;;9.63;8.95;;;;;;;;;;4991332;28;20049;-59
2022/11/25 06:10:16;;;;;;;8.63;8.07;;;;;;;;;;4982354;28;20026;-59
2022/11/25 06:12:42;;;;;;;8.95;8.35;;;;;;;;;;4993989;28;20134;-59
2022/11/25 06:15:08;;;;;;;8.50;7.85;;;;;;;;;;4991803;28;20129;-59
2022/11/25 06:17:33;;;;;;;10.23;9.52;;;;;;;;;;4991284;28;20129;-60
2022/11/25 06:19:59;;;;;;;9.30;8.70;;;;;;;;;;4991151;28;20108;-59
2022/11/25 06:22:24;;;;;;;9.40;8.80;;;;;;;;;;4990678;28;20145;-59
2022/11/25 06:24:49;;;;;;;9.20;8.43;;;;;;;;;;4994102;28;20030;-59
2022/11/25 06:27:15;;;;;;;10.32;9.63;;;;;;;;;;4990665;28;20050;-59
2022/11/25 06:29:40;;;;;;;8.55;7.95;;;;;;;;;;4991928;28;20030;-59
2022/11/25 06:32:05;;;;;;;9.30;8.60;;;;;;;;;;4991477;28;20053;-59
2022/11/25 06:34:31;;;;;;;12.27;8.82;;;;;;;;;;4991732;28;20041;-59
2022/11/25 06:36:56;;;;;;;10.25;9.00;;;;;;;;;;4994609;28;20030;-59
2022/11/25 06:39:21;;;;;;;8.35;7.82;;;;;;;;;;4991538;28;20711;-59
2022/11/25 06:41:47;;;;;;;9.90;9.20;;;;;;;;;;4992295;28;20038;-64
2022/11/25 06:44:13;;;;;;;8.90;8.30;;;;;;;;;;4994290;28;20022;-63
2022/11/25 06:46:38;;;;;;;9.43;8.07;;;;;;;;;;4988881;28;20050;-63
2022/11/25 06:49:04;;;;;;;8.48;7.88;;;;;;;;;;4991803;28;20042;-63
2022/11/25 06:51:29;;;;;;;9.05;8.45;;;;;;;;;;4990952;28;20034;-62
2022/11/25 06:53:55;;;;;;;9.05;8.35;;;;;;;;;;4992007;28;20034;-61
2022/11/25 06:56:26;;;;;;;8.40;7.82;;;;;;;;;;4993653;28;20854;-61
2022/11/25 06:58:52;;;;;;;9.20;8.60;;;;;;;;;;4993675;28;20041;-60
2022/11/25 07:01:19;;;;;;;9.27;8.68;;;;;;;;;;4974292;28;20618;-60
2022/11/25 07:03:46;;;;;;;8.70;8.13;;;;;;;;;;4995122;28;20072;-60
2022/11/25 07:06:14;;;;;;;9.80;9.10;;;;;;;;;;4994961;28;20033;-59
2022/11/25 07:08:40;;;;;;;21.27;18.13;;;;;;;;;;4994308;28;20034;-60
2022/11/25 07:11:14;;;;;;;13.73;12.38;;;;;;;;;;5011546;28;20535;-60
2022/11/25 07:13:39;;;;;;;19.65;17.73;;;;;;;;;;4995962;28;20499;-60
2022/11/25 07:16:05;;;;;;;20.52;18.63;;;;;;;;;;4995962;28;20022;-60
2022/11/25 07:18:33;;;;;;;12.98;12.07;;;;;;;;;;4992842;28;20034;-60
2022/11/25 07:21:07;;;;;;;14.25;13.10;;;;;;;;;;4992408;28;20034;-60
2022/11/25 07:23:34;;;;;;;16.33;15.02;;;;;;;;;;5002806;28;20042;-60
2022/11/25 07:26:09;;;;;;;16.85;15.23;;;;;;;;;;4993669;28;20023;-61
2022/11/25 07:28:34;;;;;;;12.88;11.85;;;;;;;;;;4995362;28;20419;-61
2022/11/25 07:31:18;;;;;;;11.27;10.50;;;;;;;;;;4992953;28;20026;-61
2022/11/25 07:33:44;;;;;;;9.95;9.30;;;;;;;;;;4992903;28;20030;-61
2022/11/25 07:36:12;;;;;;;10.63;9.93;;;;;;;;;;4996352;28;20076;-61
2022/11/25 07:38:39;;;;;;;11.10;10.40;;;;;;;;;;4995553;28;20108;-61
2022/11/25 07:41:07;;;;;;;10.57;9.88;;;;;;;;;;4991967;28;20037;-61
2022/11/25 07:43:33;;;;;;;10.65;9.88;;;;;;;;;;4997321;28;20022;-61
2022/11/25 07:46:12;;;;;;;9.77;9.18;;;;;;;;;;4993607;28;20048;-61
2022/11/25 07:48:38;;;;;;;10.13;9.43;;;;;;;;;;4994609;28;20042;-61
2022/11/25 07:51:04;;;;;;;9.57;8.98;;;;;;;;;;4990741;28;20038;-62
2022/11/25 07:53:29;;;;;;;9.80;9.20;;;;;;;;;;4991332;28;20057;-61
2022/11/25 07:55:54;;;;;;;10.05;9.45;;;;;;;;;;4994917;28;20745;-61
2022/11/25 07:58:20;;;;;;;10.95;10.05;;;;;;;;;;4990861;28;20192;-61
2022/11/25 08:00:45;;;;;;;10.10;9.40;;;;;;;;;;4992950;28;20386;-62
2022/11/25 08:03:10;;;;;;;11.30;9.02;;;;;;;;;;4992334;28;20226;-61
2022/11/25 08:05:36;;;;;;;9.88;9.27;;;;;;;;;;4993541;28;20036;-62
2022/11/25 08:08:02;;;;;;;10.45;9.75;;;;;;;;;;4991220;28;20357;-61
2022/11/25 08:10:27;;;;;;;9.10;8.50;;;;;;;;;;4995101;28;20314;-63
2022/11/25 08:12:52;;;;;;;9.40;8.80;;;;;;;;;;4993982;28;20397;-62
2022/11/25 08:15:18;;;;;;;9.95;9.35;;;;;;;;;;4992878;28;20168;-62
2022/11/25 08:17:43;;;;;;;10.45;9.80;;;;;;;;;;4993721;28;20105;-62
2022/11/25 08:20:09;;;;;;;9.15;8.55;;;;;;;;;;4990765;28;20499;-63
2022/11/25 08:22:34;;;;;;;9.15;8.55;;;;;;;;;;4993321;28;20518;-63
2022/11/25 08:25:00;;;;;;;10.57;9.77;;;;;;;;;;4994753;28;20057;-62
2022/11/25 08:27:25;;;;;;;10.88;10.13;;;;;;;;;;4993049;28;20034;-61
2022/11/25 08:29:51;;;;;;;10.82;10.13;;;;;;;;;;4992928;28;20045;-63
2022/11/25 08:32:16;;;;;;;9.10;8.50;;;;;;;;;;4990359;28;20026;-62
2022/11/25 08:34:42;;;;;;;11.55;10.50;;;;;;;;;;4991885;28;20046;-62
2022/11/25 08:37:07;;;;;;;9.20;8.57;;;;;;;;;;4992566;28;20451;-62
2022/11/25 08:39:33;;;;;;;9.98;9.18;;;;;;;;;;4994087;28;20236;-63
2022/11/25 08:42:01;;;;;;;9.15;8.55;;;;;;;;;;4993092;28;20030;-61
2022/11/25 08:44:28;;;;;;;9.65;8.95;;;;;;;;;;4993682;28;20088;-61
2022/11/25 08:46:54;;;;;;;9.02;8.43;;;;;;;;;;4990643;28;20177;-61
2022/11/25 08:49:20;;;;;;;9.98;9.30;;;;;;;;;;4993332;28;20365;-61
2022/11/25 08:51:46;;;;;;;8.60;7.90;;;;;;;;;;4995215;28;20104;-61
2022/11/25 08:54:12;;;;;;;9.02;8.43;;;;;;;;;;4993988;28;20137;-61
2022/11/25 08:56:37;;;;;;;9.68;9.07;;;;;;;;;;4993553;28;20034;-61
2022/11/25 08:59:03;;;;;;;9.20;8.45;;;;;;;;;;4990594;28;20350;-62
2022/11/25 09:01:28;;;;;;;10.82;10.02;;;;;;;;;;4993611;28;20113;-61
2022/11/25 09:03:55;;;;;;;10.18;9.48;;;;;;;;;;4991014;28;21082;-61
2022/11/25 09:06:22;;;;;;;8.80;8.23;;;;;;;;;;4991874;28;20026;-61
2022/11/25 09:08:48;;;;;;;9.30;8.70;;;;;;;;;;4992906;28;20041;-61
2022/11/25 09:11:14;;;;;;;9.43;8.73;;;;;;;;;;4992133;28;20030;-61
2022/11/25 09:13:39;;;;;;;8.80;8.20;;;;;;;;;;4991740;28;20044;-61
2022/11/25 09:16:06;;;;;;;8.35;7.75;;;;;;;;;;4989759;28;20026;-60
2022/11/25 09:18:31;;;;;;;9.07;8.45;;;;;;;;;;4993304;28;20263;-59
2022/11/25 09:20:57;;;;;;;9.02;8.40;;;;;;;;;;4993598;28;20030;-60
2022/11/25 09:23:24;;;;;;;11.18;8.38;;;;;;;;;;4991954;28;20441;-61
2022/11/25 09:25:54;;;;;;;8.82;8.20;;;;;;;;;;4992430;28;20320;-60
2022/11/25 09:28:20;;;;;;;8.20;7.68;;;;;;;;;;4992283;28;20030;-60
2022/11/25 09:30:46;;;;;;;9.65;8.95;;;;;;;;;;4992349;28;20269;-57
2022/11/25 09:33:12;;;;;;;9.38;8.68;;;;;;;;;;4993834;28;20034;-60
2022/11/25 09:35:37;;;;;;;8.63;8.02;;;;;;;;;;4992269;28;20282;-61
2022/11/25 09:38:02;;;;;;;8.73;8.13;;;;;;;;;;4992021;28;20040;-58
2022/11/25 09:40:37;;;;;;;8.95;8.35;;;;;;;;;;4991448;28;20029;-57
2022/11/25 09:46:44;;;;;;;9.13;8.52;;;;;;;;;;4989529;28;20040;-57
2022/11/25 09:49:31;;;;;;;8.10;7.50;;;;;;;;;;4992881;28;20079;-57
2022/11/25 09:52:12;;;;;;;7.50;7.00;;;;;;;;;;4988372;28;20030;-57
2022/11/25 09:54:43;;;;;;;8.35;7.82;;;;;;;;;;4991916;28;20336;-57
2022/11/25 09:57:14;;;;;;;7.57;7.07;;;;;;;;;;4992188;28;20061;-57
2022/11/25 09:59:51;;;;;;;9.35;8.65;;;;;;;;;;4991803;28;20034;-56
2022/11/25 10:02:25;;;;;;;10.07;9.27;;;;;;;;;;4991082;28;20030;-57
2022/11/25 10:05:04;;;;;;;9.05;8.45;;;;;;;;;;4992098;28;20037;-57
2022/11/25 10:07:37;;;;;;;8.35;7.75;;;;;;;;;;4990394;28;20434;-57
2022/11/25 10:10:05;;;;;;;9.20;8.60;;;;;;;;;;4992681;28;20088;-61
2022/11/25 10:12:36;;;;;;;9.32;8.73;;;;;;;;;;4991186;28;20044;-61
2022/11/25 10:15:06;;;;;;;8.60;8.00;;;;;;;;;;4990223;28;20026;-61
2022/11/25 10:18:03;;;;;;;8.73;8.13;;;;;;;;;;4995295;28;20096;-60
2022/11/25 10:20:35;;;;;;;8.77;8.18;;;;;;;;;;4990233;28;20038;-61
2022/11/25 10:23:20;;;;;;;8.38;7.78;;;;;;;;;;4991426;28;20019;-60
2022/11/25 10:25:50;;;;;;;9.48;8.77;;;;;;;;;;4994392;28;20113;-60
2022/11/25 10:28:28;;;;;;;8.53;7.90;;;;;;;;;;4996358;28;20065;-61
2022/11/25 10:31:19;;;;;;;8.18;7.57;;;;;;;;;;4991860;28;20038;-61
2022/11/25 10:33:46;;;;;;;;;;;;;;;;;;4993512;28;20073;-61
2022/11/25 10:36:17;;;;;;;7.80;7.30;;;;;;;;;;4992373;28;19913;-61
2022/11/25 10:38:48;;;;;;;;;;;;;;;;;;4989950;28;20034;-61
2022/11/25 10:41:16;;;;;;;;;;;;;;;;;;4996633;28;19919;-61
2022/11/25 10:43:42;;;;;;;8.23;7.63;;;;;;;;;;4996999;28;19913;-61
2022/11/25 10:46:19;;;;;;;8.35;7.75;;;;;;;;;;4993418;28;20030;-61
2022/11/25 10:48:52;;;;;;;8.85;8.15;;;;;;;;;;4998665;28;20033;-61
2022/11/25 10:51:42;;;;;;;8.00;7.50;;;;;;;;;;4998083;28;20026;-62
2022/11/25 10:54:18;;;;;;;8.93;8.07;;;;;;;;;;4997401;28;20041;-62
2022/11/25 10:56:48;;;;;;;7.88;7.38;;;;;;;;;;4998222;28;20034;-61
2022/11/25 10:59:34;;;;;;;8.80;8.20;;;;;;;;;;4995456;28;20407;-62
2022/11/25 11:02:19;;;;;;;8.75;8.15;;;;;;;;;;4996550;28;20341;-61
2022/11/25 11:04:52;;;;;;;8.07;7.57;;;;;;;;;;4992432;28;20523;-62
2022/11/25 11:07:17;;;;;;;8.30;7.70;;;;;;;;;;4994426;28;20042;-62
2022/11/25 11:09:44;;;;;;;7.43;6.93;;;;;;;;;;4993938;28;20104;-62
2022/11/25 11:12:19;;;;;;;8.90;8.23;;;;;;;;;;4994409;28;20056;-62
2022/11/25 11:14:44;;;;;;;8.02;7.43;;;;;;;;;;4993268;28;20046;-61
2022/11/25 11:17:33;;;;;;;7.55;7.05;;;;;;;;;;4993067;28;20029;-62
2022/11/25 11:20:12;;;;;;;8.43;7.82;;;;;;;;;;4994265;28;20706;-61
2022/11/25 11:23:04;;;;;;;8.07;7.47;;;;;;;;;;4994725;28;20480;-61
2022/11/25 11:25:35;;;;;;;7.60;7.10;;;;;;;;;;4995733;28;20052;-61
2022/11/25 11:28:01;;;;;;;;;;;;;;;;;;5003038;28;20029;-61
2022/11/25 11:30:31;;;;;;;8.43;7.82;;;;;;;;;;4994443;28;19913;-61
2022/11/25 11:33:00;;;;;;;7.60;7.10;;;;;;;;;;4995214;28;20065;-61
2022/11/25 11:35:34;;;;;;;8.70;8.10;;;;;;;;;;4996322;28;20065;-61
2022/11/25 11:38:19;;;;;;;9.15;8.30;;;;;;;;;;4993740;28;20122;-63
2022/11/25 11:40:51;;;;;;;9.00;8.30;;;;;;;;;;4995969;28;20549;-64
2022/11/25 11:43:38;;;;;;;8.73;8.13;;;;;;;;;;4991501;28;20157;-63
2022/11/25 11:46:11;;;;;;;9.40;8.70;;;;;;;;;;4993914;28;20231;-63
2022/11/25 11:48:51;;;;;;;9.40;8.50;;;;;;;;;;5000958;28;20033;-64
2022/11/25 11:51:42;;;;;;;8.45;7.85;;;;;;;;;;4992282;28;20038;-63
2022/11/25 11:54:13;;;;;;;9.60;8.75;;;;;;;;;;4993905;28;20146;-64
2022/11/25 11:56:45;;;;;;;9.60;8.90;;;;;;;;;;4992197;28;20038;-63
2022/11/25 11:59:47;;;;;;;8.90;8.30;;;;;;;;;;4992177;28;20021;-63
2022/11/25 12:02:34;;;;;;;8.65;7.95;;;;;;;;;;4992568;28;20096;-63
2022/11/25 12:05:16;;;;;;;8.93;8.32;;;;;;;;;;4994126;28;20049;-63
2022/11/25 12:07:56;;;;;;;9.48;8.77;;;;;;;;;;4996638;28;20049;-63
2022/11/25 12:10:29;;;;;;;9.35;8.70;;;;;;;;;;4992342;28;20038;-63
2022/11/25 12:13:12;;;;;;;9.60;9.00;;;;;;;;;;4992547;28;20034;-64
2022/11/25 12:15:46;;;;;;;10.43;9.73;;;;;;;;;;4995655;28;20575;-64
2022/11/25 12:18:37;;;;;;;10.05;9.35;;;;;;;;;;4995176;28;20030;-64
2022/11/25 12:21:07;;;;;;;8.48;7.88;;;;;;;;;;4993349;28;20064;-64
2022/11/25 12:23:52;;;;;;;11.00;10.10;;;;;;;;;;4992910;28;20041;-64
2022/11/25 12:26:35;;;;;;;13.63;10.73;;;;;;;;;;4992951;28;20059;-65
2022/11/25 12:29:09;;;;;;;8.98;8.38;;;;;;;;;;4992069;28;20022;-64
2022/11/25 12:31:51;;;;;;;9.98;9.38;;;;;;;;;;4992811;28;20094;-59
2022/11/25 12:34:30;;;;;;;8.80;8.10;;;;;;;;;;4993491;28;20412;-59
2022/11/25 12:37:07;;;;;;;9.73;9.13;;;;;;;;;;4990248;28;20021;-59
2022/11/25 12:39:54;;;;;;;10.65;9.57;;;;;;;;;;4993183;28;20045;-59
2022/11/25 12:42:24;;;;;;;9.23;8.63;;;;;;;;;;4989383;28;20049;-59
2022/11/25 12:45:01;;;;;;;10.47;9.53;;;;;;;;;;4993541;28;20030;-59
2022/11/25 12:47:27;;;;;;;9.20;8.60;;;;;;;;;;4994226;28;20323;-59
2022/11/25 12:49:54;;;;;;;9.57;8.98;;;;;;;;;;4991226;28;20552;-58
2022/11/25 12:52:41;;;;;;;9.30;8.70;;;;;;;;;;4993175;28;20109;-59
2022/11/25 12:55:15;;;;;;;9.30;8.70;;;;;;;;;;4993567;28;20179;-59
2022/11/25 12:57:56;;;;;;;8.73;8.13;;;;;;;;;;4991982;28;20045;-59
2022/11/25 13:00:29;;;;;;;9.38;8.77;;;;;;;;;;4993271;28;20227;-58
2022/11/25 13:03:13;;;;;;;9.70;8.95;;;;;;;;;;4992305;28;20034;-58
2022/11/25 13:05:48;;;;;;;9.15;8.50;;;;;;;;;;4992972;28;20432;-58
2022/11/25 13:08:51;;;;;;;9.40;8.60;;;;;;;;;;4993982;28;20030;-59
2022/11/25 13:11:40;;;;;;;11.45;10.15;;;;;;;;;;4992831;28;20119;-59
2022/11/25 13:14:24;;;;;;;9.63;8.77;;;;;;;;;;4992520;28;20044;-59
2022/11/25 13:16:51;;;;;;;9.35;8.57;;;;;;;;;;4990203;28;20038;-59
2022/11/25 13:19:18;;;;;;;8.85;8.25;;;;;;;;;;4993361;28;20519;-59
2022/11/25 13:22:03;;;;;;;8.43;7.82;;;;;;;;;;4989078;28;20034;-59
2022/11/25 13:24:40;;;;;;;9.38;8.77;;;;;;;;;;4990876;28;20093;-58
2022/11/25 13:27:32;;;;;;;8.65;7.85;;;;;;;;;;4992490;28;20035;-59
2022/11/25 13:29:59;;;;;;;8.77;8.18;;;;;;;;;;4992336;28;20029;-59
2022/11/25 13:32:30;;;;;;;9.80;8.90;;;;;;;;;;4993054;28;20487;-59
2022/11/25 13:35:20;;;;;;;8.95;8.25;;;;;;;;;;4993854;28;20034;-59
2022/11/25 13:37:45;;;;;;;7.50;7.00;;;;;;;;;;4993816;28;20042;-59
2022/11/25 13:40:22;;;;;;;8.88;8.27;;;;;;;;;;4993870;28;20342;-59
2022/11/25 13:42:49;;;;;;;8.02;7.43;;;;;;;;;;4990254;28;20037;-59
2022/11/25 13:45:36;;;;;;;9.32;8.65;;;;;;;;;;4993025;28;20041;-59
2022/11/25 13:48:17;;;;;;;8.95;8.25;;;;;;;;;;4991928;28;20118;-58
2022/11/25 13:50:43;;;;;;;8.00;7.50;;;;;;;;;;4991068;28;20069;-59
2022/11/25 13:53:23;;;;;;;7.95;7.45;;;;;;;;;;4993575;28;20034;-58
2022/11/25 13:55:49;;;;;;;8.32;7.75;;;;;;;;;;4992461;28;20030;-58
2022/11/25 13:58:23;;;;;;;9.35;8.48;;;;;;;;;;4992823;28;20173;-58
2022/11/25 14:00:49;;;;;;;8.75;8.15;;;;;;;;;;4991154;28;20056;-59
2022/11/25 14:03:17;;;;;;;9.85;9.20;;;;;;;;;;4991643;28;20041;-59
2022/11/25 14:06:20;;;;;;;7.60;7.10;;;;;;;;;;4992914;28;20037;-59
2022/11/25 14:09:16;;;;;;;8.50;7.88;;;;;;;;;;4987915;28;20744;-59
2022/11/25 14:12:09;;;;;;;9.18;8.23;;;;;;;;;;4990834;28;20061;-58
2022/11/25 14:15:04;;;;;;;9.68;8.65;;;;;;;;;;4991303;28;20039;-59
2022/11/25 14:17:40;;;;;;;8.02;7.43;;;;;;;;;;4945355;28;20042;-58
2022/11/25 14:20:29;;;;;;;10.07;7.55;;;;;;;;;;4994005;28;20038;-59
2022/11/25 14:23:23;;;;;;;8.25;7.75;;;;;;;;;;4990714;28;20117;-58
2022/11/25 14:25:54;;;;;;;8.55;7.95;;;;;;;;;;4991946;28;20026;-59
2022/11/25 14:28:46;;;;;;;9.68;8.88;;;;;;;;;;4992911;28;20053;-58
2022/11/25 14:31:19;;;;;;;8.52;7.93;;;;;;;;;;4990563;28;20542;-58
2022/11/25 14:33:52;;;;;;;8.85;8.23;;;;;;;;;;4988628;28;20043;-59
2022/11/25 14:36:25;;;;;;;8.05;7.40;;;;;;;;;;4992478;28;20049;-58
2022/11/25 14:39:01;;;;;;;9.10;8.50;;;;;;;;;;4990093;28;20121;-58
2022/11/25 14:41:34;;;;;;;8.88;8.27;;;;;;;;;;4992849;28;20034;-58
2022/11/25 14:44:04;;;;;;;10.80;9.50;;;;;;;;;;4987711;28;20398;-58
2022/11/25 14:46:30;;;;;;;13.13;9.05;;;;;;;;;;4992846;28;20044;-59
2022/11/25 14:48:57;;;;;;;9.88;9.23;;;;;;;;;;4990641;28;20030;-58
2022/11/25 14:51:25;;;;;;;9.85;9.02;;;;;;;;;;4990326;28;20030;-58
2022/11/25 14:53:51;;;;;;;9.10;8.50;;;;;;;;;;4991554;28;20388;-58
2022/11/25 14:56:26;;;;;;;8.90;8.02;;;;;;;;;;4990240;28;20030;-58
2022/11/25 14:58:53;;;;;;;9.00;8.40;;;;;;;;;;4991299;28;20021;-59
2022/11/25 15:01:30;;;;;;;10.30;9.43;;;;;;;;;;4991261;28;20389;-58
2022/11/25 15:04:14;;;;;;;10.07;9.13;;;;;;;;;;4990043;28;20109;-58
2022/11/25 15:06:42;;;;;;;9.65;9.02;;;;;;;;;;4987414;28;20042;-58
2022/11/25 15:09:37;;;;;;;10.35;9.55;;;;;;;;;;4987228;28;20096;-58
2022/11/25 15:12:07;;;;;;;8.63;8.02;;;;;;;;;;4989330;28;20034;-59